Time;durP1;ratioP1;P1;durP2;ratioP2;P2;SDS_P1;SDS_P2;PMS_P1;PMS_P2;Temp;Humidity;BMP_temperature;BMP_pressure;BME280_temperature;BME280_humidity;BME280_pressure;Samples;Min_cycle;Max_cycle;Signal;HPM_P1;HPM_P2
2021/10/04 00:00:39;;;;;;;;;;;;;;;21.05;62.26;99860.94;2070121;28;20218;-40
2021/10/04 00:01:40;;;;;;;;;;;;;;;21.05;62.43;99866.41;2072794;28;19925;-40
2021/10/04 00:02:41;;;;;;;;;;;;;;;21.04;62.43;99860.03;2075298;28;20184;-40
2021/10/04 00:03:41;;;;;;;;;;;;;;;21.03;62.47;99857.50;2071773;28;20011;-40
2021/10/04 00:04:42;;;;;;;;;;;;;;;21.04;62.36;99845.50;2075658;28;20217;-40
2021/10/04 00:05:42;;;;;;;;;;;;;;;21.04;62.28;99848.22;2073938;28;20299;-40
2021/10/04 00:06:42;;;;;;;;;;;;;;;21.05;62.38;99847.22;2063256;28;19917;-40
2021/10/04 00:07:43;;;;;;;;;;;;;;;21.04;62.38;99845.50;2065019;28;19924;-40
2021/10/04 00:08:43;;;;;;;;;;;;;;;21.04;62.39;99840.00;2076446;28;19994;-40
2021/10/04 00:09:44;;;;;;;;;;;;;;;21.03;62.35;99844.63;2070837;28;20309;-40
2021/10/04 00:10:44;;;;;;;;;;;;;;;21.04;62.24;99840.00;2075595;28;20047;-40
2021/10/04 00:11:44;;;;;;;;;;;;;;;21.03;62.28;99830.94;2075817;28;19913;-40
2021/10/04 00:12:45;;;;;;;;;;;;;;;21.04;62.35;99820.81;2063621;28;19949;-40
2021/10/04 00:13:45;;;;;;;;;;;;;;;21.04;62.29;99823.56;2067494;28;19953;-40
2021/10/04 00:14:46;;;;;;;;;;;;;;;21.03;62.50;99824.59;2072952;28;19956;-40
2021/10/04 00:15:46;;;;;;;;;;;;;;;21.03;62.32;99825.47;2075070;28;19951;-40
2021/10/04 00:16:48;;;;;;;;;;;;;;;21.02;62.34;99823.75;2069367;28;19916;-40
2021/10/04 00:17:48;;;;;;;;;;;;;;;21.03;62.51;99825.47;2071859;28;19923;-40
2021/10/04 00:18:48;;;;;;;;;;;;;;;21.03;62.43;99832.81;2072281;28;19923;-40
2021/10/04 00:19:49;;;;;;;;;;;;;;;21.03;62.30;99830.09;2066537;28;19920;-40
2021/10/04 00:20:49;;;;;;;;;;;;;;;21.03;62.22;99824.59;2071267;28;19964;-40
2021/10/04 00:21:50;;;;;;;;;;;;;;;21.04;62.32;99831.78;2070355;28;19913;-40
2021/10/04 00:22:50;;;;;;;;;;;;;;;21.03;62.42;99835.56;2073743;28;20012;-40
2021/10/04 00:23:51;;;;;;;;;;;;;;;21.03;62.30;99835.56;2064240;28;19936;-40
2021/10/04 00:24:51;;;;;;;;;;;;;;;21.03;62.32;99836.41;2076350;28;19998;-40
2021/10/04 00:25:51;;;;;;;;;;;;;;;21.03;62.20;99843.78;2074377;28;20659;-40
2021/10/04 00:26:52;;;;;;;;;;;;;;;21.04;62.40;99848.22;2075782;28;20227;-40
2021/10/04 00:27:52;;;;;;;;;;;;;;;21.03;62.25;99849.28;2067484;28;19917;-40
2021/10/04 00:28:53;;;;;;;;;;;;;;;21.03;62.30;99854.75;2073341;28;19920;-40
2021/10/04 00:29:53;;;;;;;;;;;;;;;21.02;62.29;99855.75;2070572;28;20303;-40
2021/10/04 00:30:53;;;;;;;;;;;;;;;21.03;62.27;99854.75;2070714;28;19923;-40
2021/10/04 00:31:54;;;;;;;;;;;;;;;21.02;62.14;99853.00;2069969;28;19925;-40
2021/10/04 00:32:55;;;;;;;;;;;;;;;21.03;62.28;99854.75;2073333;28;20962;-40
2021/10/04 00:33:55;;;;;;;;;;;;;;;21.03;62.22;99849.28;2068744;28;19924;-40
2021/10/04 00:34:55;;;;;;;;;;;;;;;21.02;62.51;99848.41;2062398;28;20595;-40
2021/10/04 00:35:56;;;;;;;;;;;;;;;21.03;62.38;99852.00;2065861;28;19971;-40
2021/10/04 00:36:57;;;;;;;;;;;;;;;21.02;62.25;99844.78;2068864;28;20451;-40
2021/10/04 00:37:57;;;;;;;;;;;;;;;21.01;62.26;99843.94;2074141;28;20138;-40
2021/10/04 00:38:58;;;;;;;;;;;;;;;21.02;62.29;99845.69;2069575;28;19917;-40
2021/10/04 00:39:58;;;;;;;;;;;;;;;21.01;62.28;99832.13;2075182;28;20179;-40
2021/10/04 00:40:58;;;;;;;;;;;;;;;21.02;62.30;99842.06;2074329;28;19917;-40
2021/10/04 00:41:59;;;;;;;;;;;;;;;21.01;62.35;99838.47;2073680;28;19921;-40
2021/10/04 00:43:00;;;;;;;;;;;;;;;21.01;62.39;99843.94;2074561;28;20198;-40
2021/10/04 00:44:00;;;;;;;;;;;;;;;21.01;62.48;99845.84;2070131;28;19917;-40
2021/10/04 00:45:00;;;;;;;;;;;;;;;21.01;62.36;99848.56;2072690;28;20398;-40
2021/10/04 00:46:01;;;;;;;;;;;;;;;21.01;62.32;99843.09;2074382;28;19917;-41
2021/10/04 00:47:01;;;;;;;;;;;;;;;21.01;62.30;99841.19;2068913;28;19921;-40
2021/10/04 00:48:01;;;;;;;;;;;;;;;21.01;62.24;99843.09;2072309;28;19955;-39
2021/10/04 00:49:03;;;;;;;;;;;;;;;21.01;62.18;99843.09;2077665;28;19909;-40
2021/10/04 00:50:03;;;;;;;;;;;;;;;21.01;62.31;99834.88;2075841;28;19970;-40
2021/10/04 00:51:04;;;;;;;;;;;;;;;21.00;62.30;99828.53;2072859;28;20072;-40
2021/10/04 00:52:04;;;;;;;;;;;;;;;21.00;62.04;99836.75;2076723;28;19979;-40
2021/10/04 00:53:04;;;;;;;;;;;;;;;21.00;62.42;99839.50;2076544;28;19912;-40
2021/10/04 00:54:05;;;;;;;;;;;;;;;21.00;62.48;99836.75;2072397;28;19917;-40
2021/10/04 00:55:07;;;;;;;;;;;;;;;21.00;62.14;99842.25;2077216;28;19921;-40
2021/10/04 00:56:07;;;;;;;;;;;;;;;21.00;62.19;99853.22;2072103;28;20007;-40
2021/10/04 00:57:08;;;;;;;;;;;;;;;21.00;62.28;99860.56;2075695;28;19916;-40
2021/10/04 00:58:08;;;;;;;;;;;;;;;21.00;62.07;99864.16;2074431;28;20356;-40
2021/10/04 00:59:08;;;;;;;;;;;;;;;21.00;62.42;99868.78;2070034;28;19917;-40
2021/10/04 01:00:10;;;;;;;;;;;;;;;21.00;62.38;99875.13;2071894;28;20533;-40
2021/10/04 01:01:11;;;;;;;;;;;;;;;21.01;62.45;99876.81;2072481;28;19917;-40
2021/10/04 01:02:11;;;;;;;;;;;;;;;21.01;62.31;99881.47;2076114;28;20212;-40
2021/10/04 01:03:15;;;;;;;;;;;;;;;21.01;62.23;99881.47;2072580;28;19924;-40
2021/10/04 01:04:16;;;;;;;;;;;;;;;21.01;62.38;99884.19;2074395;28;19964;-40
2021/10/04 01:05:17;;;;;;;;;;;;;;;21.00;62.36;99890.72;2078459;28;20063;-40
2021/10/04 01:06:18;;;;;;;;;;;;;;;21.00;62.47;99893.47;2074131;28;19966;-40
2021/10/04 01:07:18;;;;;;;;;;;;;;;21.01;62.45;99897.91;2067318;28;19952;-40
2021/10/04 01:08:18;;;;;;;;;;;;;;;21.00;62.21;99888.81;2064800;28;20409;-40
2021/10/04 01:09:19;;;;;;;;;;;;;;;21.00;62.47;99896.19;2075776;28;19917;-40
2021/10/04 01:10:20;;;;;;;;;;;;;;;21.00;62.16;99894.31;2074318;28;19952;-40
2021/10/04 01:11:20;;;;;;;;;;;;;;;21.00;62.26;99894.31;2065124;28;20549;-40
2021/10/04 01:12:20;;;;;;;;;;;;;;;21.00;62.28;99907.16;2066012;28;19921;-40
2021/10/04 01:13:21;;;;;;;;;;;;;;;20.99;62.38;99898.06;2072312;28;20741;-40
2021/10/04 01:14:22;;;;;;;;;;;;;;;20.98;62.39;99899.94;2069920;28;19956;-40
2021/10/04 01:15:22;;;;;;;;;;;;;;;20.98;62.40;99899.94;2073294;28;20478;-40
2021/10/04 01:16:22;;;;;;;;;;;;;;;20.98;62.44;99899.94;2077698;28;20071;-40
2021/10/04 01:17:22;;;;;;;;;;;;;;;20.99;62.44;99900.78;2075413;28;19916;-40
2021/10/04 01:18:23;;;;;;;;;;;;;;;20.98;62.45;99904.56;2073352;28;20320;-40
2021/10/04 01:19:23;;;;;;;;;;;;;;;21.00;62.21;99904.41;2078107;28;20258;-40
2021/10/04 01:20:25;;;;;;;;;;;;;;;20.98;62.26;99905.44;2073198;28;19913;-40
2021/10/04 01:21:25;;;;;;;;;;;;;;;20.98;62.09;99905.44;2070518;28;19916;-40
2021/10/04 01:22:26;;;;;;;;;;;;;;;20.98;62.19;99899.09;2075372;28;19952;-40
2021/10/04 01:23:28;;;;;;;;;;;;;;;20.98;62.34;99902.69;2080081;28;20243;-40
2021/10/04 01:24:28;;;;;;;;;;;;;;;20.97;62.18;99900.97;2071924;28;19917;-40
2021/10/04 01:25:29;;;;;;;;;;;;;;;20.97;62.10;99890.03;2072632;28;20024;-40
2021/10/04 01:26:30;;;;;;;;;;;;;;;20.97;62.34;99892.75;2068004;28;19913;-40
2021/10/04 01:27:30;;;;;;;;;;;;;;;20.96;62.29;99885.53;2066822;28;20456;-40
2021/10/04 01:28:30;;;;;;;;;;;;;;;20.97;62.31;99876.31;2071580;28;19924;-40
2021/10/04 01:29:31;;;;;;;;;;;;;;;20.97;62.49;99870.00;2075680;28;20196;-40
2021/10/04 01:30:32;;;;;;;;;;;;;;;20.97;62.27;99859.03;2072250;28;19916;-40
2021/10/04 01:31:32;;;;;;;;;;;;;;;20.96;62.38;99858.16;2073741;28;19921;-40
2021/10/04 01:32:32;;;;;;;;;;;;;;;20.96;62.11;99858.16;2074871;28;20168;-40
2021/10/04 01:33:33;;;;;;;;;;;;;;;20.96;62.44;99863.63;2071302;28;20332;-40
2021/10/04 01:34:33;;;;;;;;;;;;;;;20.96;62.39;99863.63;2077167;28;19915;-40
2021/10/04 01:35:33;;;;;;;;;;;;;;;20.96;62.38;99868.25;2074583;28;19954;-40
2021/10/04 01:36:34;;;;;;;;;;;;;;;20.96;62.27;99855.41;2077919;28;19917;-40
2021/10/04 01:37:34;;;;;;;;;;;;;;;20.96;62.30;99855.41;2073442;28;20213;-40
2021/10/04 01:38:34;;;;;;;;;;;;;;;20.95;62.15;99850.97;2075837;28;20396;-40
2021/10/04 01:39:35;;;;;;;;;;;;;;;20.96;62.25;99849.94;2066790;28;20287;-40
2021/10/04 01:40:38;;;;;;;;;;;;;;;20.95;62.48;99853.72;2057951;28;19921;-40
2021/10/04 01:41:38;;;;;;;;;;;;;;;20.96;62.24;99862.78;2068031;28;19974;-40
2021/10/04 01:42:39;;;;;;;;;;;;;;;20.96;62.20;99862.78;2074724;28;19986;-40
2021/10/04 01:43:40;;;;;;;;;;;;;;;20.96;62.26;99862.78;2071654;28;20273;-40
2021/10/04 01:44:40;;;;;;;;;;;;;;;20.95;62.44;99867.41;2075597;28;19916;-40
2021/10/04 01:45:41;;;;;;;;;;;;;;;20.96;62.15;99869.09;2069635;28;19924;-40
2021/10/04 01:46:42;;;;;;;;;;;;;;;20.95;62.34;99864.66;2069926;28;19913;-40
2021/10/04 01:47:42;;;;;;;;;;;;;;;20.96;62.30;99869.09;2069815;28;19944;-40
2021/10/04 01:48:43;;;;;;;;;;;;;;;20.96;62.36;99868.25;2068755;28;19917;-40
2021/10/04 01:49:44;;;;;;;;;;;;;;;20.95;62.21;99867.41;2070479;28;20747;-41
2021/10/04 01:50:44;;;;;;;;;;;;;;;20.96;62.18;99869.09;2071011;28;19925;-40
2021/10/04 01:51:45;;;;;;;;;;;;;;;20.96;62.24;99868.25;2077479;28;20226;-40
2021/10/04 01:52:45;;;;;;;;;;;;;;;20.95;62.12;99867.41;2070277;28;19917;-40
2021/10/04 01:53:46;;;;;;;;;;;;;;;20.96;62.42;99863.63;2070988;28;19917;-40
2021/10/04 01:54:46;;;;;;;;;;;;;;;20.95;62.41;99866.56;2071773;28;19917;-40
2021/10/04 01:55:47;;;;;;;;;;;;;;;20.95;62.27;99864.66;2069120;28;19924;-40
2021/10/04 01:56:47;;;;;;;;;;;;;;;20.94;62.36;99871.16;2071128;28;19913;-41
2021/10/04 01:57:47;;;;;;;;;;;;;;;20.95;62.11;99872.03;2073109;28;19952;-40
2021/10/04 01:58:48;;;;;;;;;;;;;;;20.95;62.26;99875.63;2075858;28;19920;-40
2021/10/04 01:59:48;;;;;;;;;;;;;;;20.94;62.26;99876.63;2075300;28;19913;-40
2021/10/04 02:00:48;;;;;;;;;;;;;;;20.95;62.15;99864.66;2071617;28;19917;-40
2021/10/04 02:01:49;;;;;;;;;;;;;;;20.95;62.40;99869.28;2073429;28;19921;-40
2021/10/04 02:02:50;;;;;;;;;;;;;;;20.94;62.08;99868.41;2071198;28;20007;-40
2021/10/04 02:03:51;;;;;;;;;;;;;;;20.95;62.11;99869.28;2072012;28;19917;-40
2021/10/04 02:04:51;;;;;;;;;;;;;;;20.94;62.17;99871.16;2075974;28;19921;-40
2021/10/04 02:05:52;;;;;;;;;;;;;;;20.95;62.32;99872.03;2066463;28;20498;-40
2021/10/04 02:06:52;;;;;;;;;;;;;;;20.95;62.19;99869.28;2074788;28;20434;-40
2021/10/04 02:07:53;;;;;;;;;;;;;;;20.95;62.09;99866.56;2066228;28;20257;-40
2021/10/04 02:08:53;;;;;;;;;;;;;;;20.94;62.22;99864.81;2062153;28;19921;-40
2021/10/04 02:09:53;;;;;;;;;;;;;;;20.93;62.30;99866.72;2075268;28;19919;-40
2021/10/04 02:10:54;;;;;;;;;;;;;;;20.93;62.32;99866.72;2070123;28;19970;-40
2021/10/04 02:11:54;;;;;;;;;;;;;;;20.94;62.24;99860.19;2067318;28;19921;-40
2021/10/04 02:12:55;;;;;;;;;;;;;;;20.93;62.25;99863.97;2063600;28;19917;-40
2021/10/04 02:13:56;;;;;;;;;;;;;;;20.93;62.19;99863.97;2074788;28;19917;-40
2021/10/04 02:14:56;;;;;;;;;;;;;;;20.94;62.24;99860.19;2072814;28;19956;-40
2021/10/04 02:15:56;;;;;;;;;;;;;;;20.93;62.32;99863.97;2075316;28;19956;-40
2021/10/04 02:16:57;;;;;;;;;;;;;;;20.93;62.34;99868.59;2076170;28;20234;-40
2021/10/04 02:17:57;;;;;;;;;;;;;;;20.93;62.41;99869.44;2071929;28;20008;-40
2021/10/04 02:18:58;;;;;;;;;;;;;;;20.93;62.19;99869.44;2074318;28;20399;-40
2021/10/04 02:19:58;;;;;;;;;;;;;;;20.93;62.20;99872.19;2073920;28;19951;-40
2021/10/04 02:20:58;;;;;;;;;;;;;;;20.94;62.16;99881.25;2074744;28;19917;-40
2021/10/04 02:22:03;;;;;;;;;;;;;;;20.94;62.06;99875.78;2071558;28;19917;-40
2021/10/04 02:23:07;;;;;;;;;;;;;;;20.93;62.24;99880.41;2072146;28;19921;-40
2021/10/04 02:24:07;;;;;;;;;;;;;;;20.93;62.39;99874.09;2062100;28;20588;-40
2021/10/04 02:25:08;;;;;;;;;;;;;;;20.92;62.33;99873.22;2061487;28;20273;-40
2021/10/04 02:26:09;;;;;;;;;;;;;;;20.93;62.25;99879.56;2073202;28;19921;-40
2021/10/04 02:27:09;;;;;;;;;;;;;;;20.92;62.13;99883.31;2071976;28;20130;-40
2021/10/04 02:28:10;;;;;;;;;;;;;;;20.93;62.17;99882.31;2066240;28;20164;-40
2021/10/04 02:29:10;;;;;;;;;;;;;;;20.91;62.19;99876.97;2067476;28;20485;-40
2021/10/04 02:30:12;;;;;;;;;;;;;;;20.92;62.35;99884.19;2071749;28;20119;-40
2021/10/04 02:31:13;;;;;;;;;;;;;;;20.93;62.36;99885.03;2075476;28;20442;-40
2021/10/04 02:32:13;;;;;;;;;;;;;;;20.92;62.20;99886.03;2072891;28;19925;-40
2021/10/04 02:33:14;;;;;;;;;;;;;;;20.93;62.09;99879.56;2074143;28;19975;-40
2021/10/04 02:34:14;;;;;;;;;;;;;;;20.92;62.19;99883.31;2073071;28;19924;-40
2021/10/04 02:35:15;;;;;;;;;;;;;;;20.91;62.21;99874.22;2076147;28;20257;-40
2021/10/04 02:36:21;;;;;;;;;;;;;;;20.91;62.17;99876.97;2073955;28;19917;-40
2021/10/04 02:37:22;;;;;;;;;;;;;;;20.91;62.08;99871.50;2075694;28;20133;-40
2021/10/04 02:38:22;;;;;;;;;;;;;;;20.91;62.06;99865.16;2074689;28;19981;-40
2021/10/04 02:39:22;;;;;;;;;;;;;;;20.91;62.22;99860.53;2072718;28;19959;-40
2021/10/04 02:40:23;;;;;;;;;;;;;;;20.90;62.42;99852.50;2074112;28;19920;-40
2021/10/04 02:41:23;;;;;;;;;;;;;;;20.90;62.24;99847.88;2068524;28;19909;-40
2021/10/04 02:42:24;;;;;;;;;;;;;;;20.91;62.07;99840.50;2073903;28;19940;-40
2021/10/04 02:43:24;;;;;;;;;;;;;;;20.90;62.32;99845.13;2067892;28;19924;-40
2021/10/04 02:44:25;;;;;;;;;;;;;;;20.91;62.38;99845.97;2063776;28;19917;-40
2021/10/04 02:45:26;;;;;;;;;;;;;;;20.89;62.14;99843.41;2062167;28;19924;-40
2021/10/04 02:46:26;;;;;;;;;;;;;;;20.89;62.01;99843.41;2060099;28;19914;-40
2021/10/04 02:47:27;;;;;;;;;;;;;;;20.90;62.21;99839.66;2072452;28;19923;-40
2021/10/04 02:48:27;;;;;;;;;;;;;;;20.90;62.39;99836.91;2075791;28;19909;-41
2021/10/04 02:49:27;;;;;;;;;;;;;;;20.89;62.38;99835.19;2071280;28;19921;-40
2021/10/04 02:50:28;;;;;;;;;;;;;;;20.90;62.26;99836.06;2076979;28;20670;-40
2021/10/04 02:51:29;;;;;;;;;;;;;;;20.90;62.04;99836.06;2068516;28;19916;-40
2021/10/04 02:52:29;;;;;;;;;;;;;;;20.90;62.29;99830.59;2076808;28;19970;-40
2021/10/04 02:53:29;;;;;;;;;;;;;;;20.90;62.06;99830.59;2065939;28;20494;-40
2021/10/04 02:54:29;;;;;;;;;;;;;;;20.90;62.20;99825.97;2062052;28;19913;-40
2021/10/04 02:55:30;;;;;;;;;;;;;;;20.91;62.19;99832.28;2075181;28;20239;-40
2021/10/04 02:56:30;;;;;;;;;;;;;;;20.90;62.32;99831.44;2071738;28;20437;-40
2021/10/04 02:57:30;;;;;;;;;;;;;;;20.89;62.30;99832.44;2074317;28;20157;-40
2021/10/04 02:58:31;;;;;;;;;;;;;;;20.90;62.02;99836.06;2069731;28;20240;-41
2021/10/04 02:59:32;;;;;;;;;;;;;;;20.90;62.29;99838.81;2071560;28;20046;-41
2021/10/04 03:00:33;;;;;;;;;;;;;;;20.89;62.37;99837.91;2072369;28;19913;-40
2021/10/04 03:01:33;;;;;;;;;;;;;;;20.89;62.27;99835.19;2069884;28;20057;-40
2021/10/04 03:02:34;;;;;;;;;;;;;;;20.90;62.08;99847.03;2071537;28;20329;-40
2021/10/04 03:03:34;;;;;;;;;;;;;;;20.89;62.24;99843.41;2068520;28;19917;-40
2021/10/04 03:04:34;;;;;;;;;;;;;;;20.90;62.07;99853.34;2074923;28;19917;-40
2021/10/04 03:05:35;;;;;;;;;;;;;;;20.89;62.22;99857.09;2070732;28;20029;-40
2021/10/04 03:06:35;;;;;;;;;;;;;;;20.89;62.17;99859.84;2069280;28;20035;-40
2021/10/04 03:07:35;;;;;;;;;;;;;;;20.90;62.22;99864.31;2071351;28;19941;-40
2021/10/04 03:08:36;;;;;;;;;;;;;;;20.90;62.30;99869.78;2071197;28;19945;-40
2021/10/04 03:09:36;;;;;;;;;;;;;;;20.90;62.33;99869.78;2070072;28;20403;-40
2021/10/04 03:10:37;;;;;;;;;;;;;;;20.90;62.33;99875.28;2073145;28;20731;-40
2021/10/04 03:11:37;;;;;;;;;;;;;;;20.90;62.04;99869.78;2068095;28;19923;-40
2021/10/04 03:12:37;;;;;;;;;;;;;;;20.90;62.08;99872.53;2072160;28;20344;-40
2021/10/04 03:13:37;;;;;;;;;;;;;;;20.89;62.18;99865.31;2069087;28;19917;-41
2021/10/04 03:14:38;;;;;;;;;;;;;;;20.89;62.30;99862.56;2069312;28;19917;-40
2021/10/04 03:15:38;;;;;;;;;;;;;;;20.89;62.33;99862.56;2069843;28;19906;-40
2021/10/04 03:16:38;;;;;;;;;;;;;;;20.89;62.21;99861.72;2069101;28;19970;-40
2021/10/04 03:17:39;;;;;;;;;;;;;;;20.89;62.41;99857.09;2074054;28;19926;-40
2021/10/04 03:18:39;;;;;;;;;;;;;;;20.89;62.10;99857.09;2070885;28;20516;-40
2021/10/04 03:19:39;;;;;;;;;;;;;;;20.89;62.30;99856.25;2071086;28;19917;-40
2021/10/04 03:20:40;;;;;;;;;;;;;;;20.88;62.13;99849.91;2076057;28;19948;-40
2021/10/04 03:21:40;;;;;;;;;;;;;;;20.89;62.24;99850.78;2073689;28;19917;-40
2021/10/04 03:22:41;;;;;;;;;;;;;;;20.88;62.14;99843.59;2071401;28;19917;-40
2021/10/04 03:23:41;;;;;;;;;;;;;;;20.89;62.16;99856.25;2076215;28;19912;-40
2021/10/04 03:24:42;;;;;;;;;;;;;;;20.88;62.30;99855.41;2071607;28;20320;-40
2021/10/04 03:25:42;;;;;;;;;;;;;;;20.88;62.31;99844.44;2075753;28;19946;-40
2021/10/04 03:26:43;;;;;;;;;;;;;;;20.87;62.07;99853.69;2073569;28;19924;-40
2021/10/04 03:27:43;;;;;;;;;;;;;;;20.87;62.31;99852.81;2070906;28;19920;-40
2021/10/04 03:28:44;;;;;;;;;;;;;;;20.88;62.15;99849.06;2074908;28;19947;-40
2021/10/04 03:29:44;;;;;;;;;;;;;;;20.87;62.42;99848.22;2066096;28;19960;-40
2021/10/04 03:30:44;;;;;;;;;;;;;;;20.88;62.19;99844.44;2069805;28;20322;-40
2021/10/04 03:31:45;;;;;;;;;;;;;;;20.88;62.34;99844.44;2063277;28;19916;-40
2021/10/04 03:32:46;;;;;;;;;;;;;;;20.87;62.33;99837.25;2075939;28;20027;-40
2021/10/04 03:33:47;;;;;;;;;;;;;;;20.88;62.27;99844.44;2075477;28;19920;-40
2021/10/04 03:34:47;;;;;;;;;;;;;;;20.87;62.36;99842.75;2072382;28;20629;-40
2021/10/04 03:35:47;;;;;;;;;;;;;;;20.87;62.43;99837.25;2075678;28;20568;-40
2021/10/04 03:36:47;;;;;;;;;;;;;;;20.87;62.39;99842.75;2073952;28;19921;-40
2021/10/04 03:37:48;;;;;;;;;;;;;;;20.86;62.29;99832.78;2072737;28;19971;-40
2021/10/04 03:38:48;;;;;;;;;;;;;;;20.87;62.33;99830.91;2068120;28;20016;-40
2021/10/04 03:39:49;;;;;;;;;;;;;;;20.86;62.08;99830.06;2069281;28;19921;-40
2021/10/04 03:40:49;;;;;;;;;;;;;;;20.86;62.42;99824.56;2069139;28;19999;-40
2021/10/04 03:41:49;;;;;;;;;;;;;;;20.86;62.23;99816.34;2071065;28;20233;-40
2021/10/04 03:42:51;;;;;;;;;;;;;;;20.87;62.01;99820.81;2073489;28;20417;-43
2021/10/04 03:43:51;;;;;;;;;;;;;;;20.86;62.37;99819.09;2069183;28;20347;-40
2021/10/04 03:44:51;;;;;;;;;;;;;;;20.86;62.36;99818.25;2073149;28;19948;-40
2021/10/04 03:45:52;;;;;;;;;;;;;;;20.85;62.35;99817.38;2073268;28;19917;-40
2021/10/04 03:46:52;;;;;;;;;;;;;;;20.85;62.17;99814.66;2070334;28;20312;-40
2021/10/04 03:47:52;;;;;;;;;;;;;;;20.85;62.26;99814.66;2072952;28;19923;-40
2021/10/04 03:48:52;;;;;;;;;;;;;;;20.85;62.33;99817.38;2068918;28;19917;-40
2021/10/04 03:49:53;;;;;;;;;;;;;;;20.85;62.09;99814.66;2068958;28;20369;-40
2021/10/04 03:50:54;;;;;;;;;;;;;;;20.86;62.40;99819.09;2073621;28;19948;-40
2021/10/04 03:51:55;;;;;;;;;;;;;;;20.85;62.39;99817.38;2075220;28;20302;-40
2021/10/04 03:52:55;;;;;;;;;;;;;;;20.86;62.21;99819.09;2061022;28;20127;-40
2021/10/04 03:53:56;;;;;;;;;;;;;;;20.86;62.16;99819.09;2064874;28;19940;-40
2021/10/04 03:54:56;;;;;;;;;;;;;;;20.86;62.38;99816.34;2071748;28;19923;-40
2021/10/04 03:55:57;;;;;;;;;;;;;;;20.86;62.37;99819.09;2071178;28;19971;-40
2021/10/04 03:56:57;;;;;;;;;;;;;;;20.85;62.05;99820.13;2072011;28;20245;-40
2021/10/04 03:57:58;;;;;;;;;;;;;;;20.85;62.13;99828.34;2068809;28;20010;-40
2021/10/04 03:58:58;;;;;;;;;;;;;;;20.85;62.22;99833.81;2071569;28;19924;-40
2021/10/04 03:59:59;;;;;;;;;;;;;;;20.84;62.22;99829.34;2073666;28;20164;-40
2021/10/04 04:00:59;;;;;;;;;;;;;;;20.86;62.30;99841.00;2053574;28;19918;-40
2021/10/04 04:01:59;;;;;;;;;;;;;;;20.85;62.33;99843.91;2058358;28;19988;-40
2021/10/04 04:03:00;;;;;;;;;;;;;;;20.85;62.03;99844.78;2066389;28;20298;-40
2021/10/04 04:04:00;;;;;;;;;;;;;;;20.85;62.37;99846.63;2064962;28;20370;-40
2021/10/04 04:05:01;;;;;;;;;;;;;;;20.84;62.38;99848.53;2072845;28;19916;-40
2021/10/04 04:06:01;;;;;;;;;;;;;;;20.85;62.05;99853.00;2070334;28;19916;-40
2021/10/04 04:07:01;;;;;;;;;;;;;;;20.85;62.21;99844.78;2075036;28;20130;-40
2021/10/04 04:08:02;;;;;;;;;;;;;;;20.85;62.36;99850.25;2069375;28;19917;-40
2021/10/04 04:09:03;;;;;;;;;;;;;;;20.85;62.35;99861.22;2070759;28;19932;-40
2021/10/04 04:10:04;;;;;;;;;;;;;;;20.85;62.25;99858.47;2073707;28;19917;-40
2021/10/04 04:11:05;;;;;;;;;;;;;;;20.85;62.28;99866.69;2078919;28;20281;-40
2021/10/04 04:12:05;;;;;;;;;;;;;;;20.85;62.10;99863.97;2069553;28;19921;-40
2021/10/04 04:13:05;;;;;;;;;;;;;;;20.84;62.10;99864.97;2070580;28;19982;-40
2021/10/04 04:14:06;;;;;;;;;;;;;;;20.84;62.30;99867.72;2067424;28;19945;-40
2021/10/04 04:15:06;;;;;;;;;;;;;;;20.84;62.12;99873.19;2074195;28;20251;-40
2021/10/04 04:16:07;;;;;;;;;;;;;;;20.85;62.02;99883.13;2078710;28;19917;-40
2021/10/04 04:17:07;;;;;;;;;;;;;;;20.85;62.10;99888.63;2072946;28;19924;-40
2021/10/04 04:18:08;;;;;;;;;;;;;;;20.85;62.41;99887.72;2073019;28;19924;-40
2021/10/04 04:19:08;;;;;;;;;;;;;;;20.85;62.04;99874.91;2078191;28;20216;-40
2021/10/04 04:20:09;;;;;;;;;;;;;;;20.85;62.29;99876.78;2073019;28;19962;-41
2021/10/04 04:21:09;;;;;;;;;;;;;;;20.83;62.19;99874.22;2069074;28;20216;-40
2021/10/04 04:22:10;;;;;;;;;;;;;;;20.85;62.39;99872.19;2083895;28;20293;-40
2021/10/04 04:23:10;;;;;;;;;;;;;;;20.84;62.25;99864.97;2081086;28;20639;-41
2021/10/04 04:24:11;;;;;;;;;;;;;;;20.83;62.07;99866.00;2070331;28;19905;-40
2021/10/04 04:25:12;;;;;;;;;;;;;;;20.84;62.38;99861.38;2068198;28;19928;-40
2021/10/04 04:26:12;;;;;;;;;;;;;;;20.84;62.13;99862.22;2070727;28;19917;-40
2021/10/04 04:27:12;;;;;;;;;;;;;;;20.83;62.29;99863.25;2072963;28;19924;-40
2021/10/04 04:28:12;;;;;;;;;;;;;;;20.83;62.38;99860.53;2077255;28;20888;-40
2021/10/04 04:29:13;;;;;;;;;;;;;;;20.84;62.31;99864.97;2070488;28;20052;-40
2021/10/04 04:30:14;;;;;;;;;;;;;;;20.83;62.06;99863.25;2073114;28;20440;-40
2021/10/04 04:31:14;;;;;;;;;;;;;;;20.83;62.33;99866.00;2070633;28;20093;-40
2021/10/04 04:32:14;;;;;;;;;;;;;;;20.83;62.13;99859.69;2077193;28;19921;-40
2021/10/04 04:33:15;;;;;;;;;;;;;;;20.82;62.38;99867.00;2074558;28;19952;-40
2021/10/04 04:34:15;;;;;;;;;;;;;;;20.84;62.45;99866.84;2069111;28;20431;-40
2021/10/04 04:35:16;;;;;;;;;;;;;;;20.84;62.14;99869.59;2064851;28;19945;-40
2021/10/04 04:36:16;;;;;;;;;;;;;;;20.83;62.34;99873.38;2074125;28;20635;-40
2021/10/04 04:37:16;;;;;;;;;;;;;;;20.83;62.20;99874.22;2071058;28;19917;-40
2021/10/04 04:38:17;;;;;;;;;;;;;;;20.83;62.33;99874.22;2075916;28;20335;-40
2021/10/04 04:39:17;;;;;;;;;;;;;;;20.83;62.41;99885.19;2067433;28;20272;-40
2021/10/04 04:40:18;;;;;;;;;;;;;;;20.83;62.38;99885.19;2072430;28;19917;-40
2021/10/04 04:41:18;;;;;;;;;;;;;;;20.83;62.12;99884.34;2074502;28;19917;-41
2021/10/04 04:42:20;;;;;;;;;;;;;;;20.82;62.31;99888.94;2072854;28;20115;-40
2021/10/04 04:43:21;;;;;;;;;;;;;;;20.83;62.08;99884.34;2068783;28;20325;-40
2021/10/04 04:44:21;;;;;;;;;;;;;;;20.82;62.38;99883.44;2065622;28;19925;-40
2021/10/04 04:45:22;;;;;;;;;;;;;;;20.82;62.12;99888.94;2067437;28;20149;-40
2021/10/04 04:46:22;;;;;;;;;;;;;;;20.83;62.13;99884.34;2068016;28;19917;-40
2021/10/04 04:47:22;;;;;;;;;;;;;;;20.83;62.28;99889.81;2076475;28;19917;-40
2021/10/04 04:48:23;;;;;;;;;;;;;;;20.81;62.35;99879.00;2076075;28;20450;-40
2021/10/04 04:49:27;;;;;;;;;;;;;;;20.82;62.25;99888.94;2073411;28;20083;-40
2021/10/04 04:50:28;;;;;;;;;;;;;;;20.82;62.15;99877.97;2074657;28;19917;-40
2021/10/04 04:51:29;;;;;;;;;;;;;;;20.81;62.47;99892.69;2074881;28;20438;-40
2021/10/04 04:52:29;;;;;;;;;;;;;;;20.82;62.07;99883.44;2073780;28;19964;-40
2021/10/04 04:53:29;;;;;;;;;;;;;;;20.81;62.17;99879.00;2072830;28;20357;-40
2021/10/04 04:54:30;;;;;;;;;;;;;;;20.82;62.03;99880.72;2079123;28;19917;-40
2021/10/04 04:55:30;;;;;;;;;;;;;;;20.81;62.35;99881.75;2074620;28;19923;-40
2021/10/04 04:56:30;;;;;;;;;;;;;;;20.81;62.08;99887.22;2066565;28;20394;-40
2021/10/04 04:57:31;;;;;;;;;;;;;;;20.82;62.21;99894.41;2070056;28;19917;-40
2021/10/04 04:58:31;;;;;;;;;;;;;;;20.82;62.26;99891.66;2074154;28;20329;-40
2021/10/04 04:59:32;;;;;;;;;;;;;;;20.81;62.47;99892.69;2074429;28;19916;-40
2021/10/04 05:00:33;;;;;;;;;;;;;;;20.82;62.40;99888.06;2074496;28;19909;-40
2021/10/04 05:01:33;;;;;;;;;;;;;;;20.81;62.34;99889.13;2069901;28;19956;-40
2021/10/04 05:02:36;;;;;;;;;;;;;;;20.81;62.38;99892.69;2071021;28;19941;-40
2021/10/04 05:03:37;;;;;;;;;;;;;;;20.81;62.21;99881.75;2072596;28;20419;-40
2021/10/04 05:04:37;;;;;;;;;;;;;;;20.81;62.32;99887.22;2075142;28;19976;-40
2021/10/04 05:05:37;;;;;;;;;;;;;;;20.81;62.14;99880.91;2072053;28;19917;-40
2021/10/04 05:06:38;;;;;;;;;;;;;;;20.80;62.24;99880.03;2072912;28;20314;-40
2021/10/04 05:07:39;;;;;;;;;;;;;;;20.80;62.35;99879.16;2073661;28;19920;-40
2021/10/04 05:08:39;;;;;;;;;;;;;;;20.80;62.11;99880.03;2071706;28;20182;-40
2021/10/04 05:09:40;;;;;;;;;;;;;;;20.80;62.05;99874.56;2074346;28;20192;-40
2021/10/04 05:10:40;;;;;;;;;;;;;;;20.80;62.26;99873.69;2071366;28;19916;-40
2021/10/04 05:11:40;;;;;;;;;;;;;;;20.80;62.33;99871.81;2073995;28;20464;-40
2021/10/04 05:12:41;;;;;;;;;;;;;;;20.80;62.15;99873.69;2075143;28;19959;-40
2021/10/04 05:13:43;;;;;;;;;;;;;;;20.79;62.34;99886.53;2070282;28;20402;-40
2021/10/04 05:14:44;;;;;;;;;;;;;;;20.80;62.16;99884.63;2074621;28;19932;-40
2021/10/04 05:15:44;;;;;;;;;;;;;;;20.79;62.35;99889.25;2074868;28;20312;-40